sensor_id;sensor_type;location;lat;lon;timestamp;pressure;altitude;pressure_sealevel;temperature;humidity
72942;BME280;69665;55.822;37.330;2023-05-24T00:01:41;99525.66;;;17.95;55.01
72942;BME280;69665;55.822;37.330;2023-05-24T00:04:09;99518.72;;;17.93;54.68
72942;BME280;69665;55.822;37.330;2023-05-24T00:06:36;99519.25;;;17.98;53.36
72942;BME280;69665;55.822;37.330;2023-05-24T00:09:05;99520.00;;;18.00;53.30
72942;BME280;69665;55.822;37.330;2023-05-24T00:11:30;99521.81;;;18.00;52.07
72942;BME280;69665;55.822;37.330;2023-05-24T00:13:56;99526.09;;;18.02;53.14
72942;BME280;69665;55.822;37.330;2023-05-24T00:16:22;99526.94;;;18.03;52.10
72942;BME280;69665;55.822;37.330;2023-05-24T00:18:48;99523.31;;;18.04;52.19
72942;BME280;69665;55.822;37.330;2023-05-24T00:21:14;99507.97;;;17.94;51.98
72942;BME280;69665;55.822;37.330;2023-05-24T00:23:41;99520.53;;;18.05;52.37
72942;BME280;69665;55.822;37.330;2023-05-24T00:26:08;99505.19;;;17.96;51.89
72942;BME280;69665;55.822;37.330;2023-05-24T00:28:34;99503.47;;;17.95;51.64
72942;BME280;69665;55.822;37.330;2023-05-24T00:31:00;99520.84;;;18.01;53.33
72942;BME280;69665;55.822;37.330;2023-05-24T00:33:27;99516.69;;;17.96;52.65
72942;BME280;69665;55.822;37.330;2023-05-24T00:35:54;99514.78;;;17.98;51.70
72942;BME280;69665;55.822;37.330;2023-05-24T00:38:28;99509.13;;;18.03;53.21
72942;BME280;69665;55.822;37.330;2023-05-24T00:40:54;99508.28;;;18.03;51.96
72942;BME280;69665;55.822;37.330;2023-05-24T00:43:25;99497.72;;;18.01;52.60
72942;BME280;69665;55.822;37.330;2023-05-24T00:46:17;99492.94;;;17.93;53.48
72942;BME280;69665;55.822;37.330;2023-05-24T00:48:44;99512.66;;;18.04;51.86
72942;BME280;69665;55.822;37.330;2023-05-24T00:51:12;99511.06;;;18.01;51.46
72942;BME280;69665;55.822;37.330;2023-05-24T00:53:39;99507.63;;;17.99;51.72
72942;BME280;69665;55.822;37.330;2023-05-24T00:56:06;99494.03;;;17.91;51.61
72942;BME280;69665;55.822;37.330;2023-05-24T00:58:32;99500.72;;;17.96;51.48
72942;BME280;69665;55.822;37.330;2023-05-24T01:00:59;99507.84;;;17.96;52.52
72942;BME280;69665;55.822;37.330;2023-05-24T01:03:26;99503.59;;;17.93;51.71
72942;BME280;69665;55.822;37.330;2023-05-24T01:05:57;99499.34;;;17.91;51.80
72942;BME280;69665;55.822;37.330;2023-05-24T01:11:06;99477.09;;;17.79;52.19
72942;BME280;69665;55.822;37.330;2023-05-24T01:13:51;99483.06;;;17.83;53.00
72942;BME280;69665;55.822;37.330;2023-05-24T01:16:24;99484.34;;;17.90;51.75
72942;BME280;69665;55.822;37.330;2023-05-24T01:18:53;99474.09;;;17.84;52.08
72942;BME280;69665;55.822;37.330;2023-05-24T01:27:07;99482.28;;;17.93;51.31
72942;BME280;69665;55.822;37.330;2023-05-24T01:29:35;99466.84;;;17.86;51.71
72942;BME280;69665;55.822;37.330;2023-05-24T01:32:01;99478.16;;;17.89;51.99
72942;BME280;69665;55.822;37.330;2023-05-24T01:34:28;99470.91;;;17.91;51.66
72942;BME280;69665;55.822;37.330;2023-05-24T01:36:53;99453.84;;;17.81;52.18
72942;BME280;69665;55.822;37.330;2023-05-24T01:39:20;99477.09;;;17.92;52.20
72942;BME280;69665;55.822;37.330;2023-05-24T01:42:03;99450.13;;;17.84;52.87
72942;BME280;69665;55.822;37.330;2023-05-24T01:44:41;99461.31;;;17.89;53.04
72942;BME280;69665;55.822;37.330;2023-05-24T01:49:37;99464.38;;;17.95;51.82
72942;BME280;69665;55.822;37.330;2023-05-24T01:52:15;99468.84;;;17.95;52.55
72942;BME280;69665;55.822;37.330;2023-05-24T01:54:43;99450.13;;;17.84;51.74
72942;BME280;69665;55.822;37.330;2023-05-24T01:57:10;99450.75;;;17.87;51.48
72942;BME280;69665;55.822;37.330;2023-05-24T01:59:39;99476.72;;;17.96;51.55
72942;BME280;69665;55.822;37.330;2023-05-24T02:02:06;99447.56;;;17.82;52.10
72942;BME280;69665;55.822;37.330;2023-05-24T02:04:32;99461.81;;;17.94;52.00
72942;BME280;69665;55.822;37.330;2023-05-24T02:06:57;99466.06;;;17.96;51.78
72942;BME280;69665;55.822;37.330;2023-05-24T02:09:23;99472.25;;;17.97;52.14
72942;BME280;69665;55.822;37.330;2023-05-24T02:11:49;99465.97;;;17.98;52.20
72942;BME280;69665;55.822;37.330;2023-05-24T02:14:15;99468.53;;;18.00;51.71
72942;BME280;69665;55.822;37.330;2023-05-24T02:16:42;99476.72;;;17.96;51.12
72942;BME280;69665;55.822;37.330;2023-05-24T02:19:12;99478.66;;;17.94;51.60
72942;BME280;69665;55.822;37.330;2023-05-24T02:21:40;99477.09;;;17.92;52.37
72942;BME280;69665;55.822;37.330;2023-05-24T02:24:06;99473.69;;;17.90;51.72
72942;BME280;69665;55.822;37.330;2023-05-24T02:26:32;99471.88;;;17.90;52.33
72942;BME280;69665;55.822;37.330;2023-05-24T02:28:58;99465.56;;;17.91;51.41
72942;BME280;69665;55.822;37.330;2023-05-24T02:31:24;99473.22;;;17.96;51.66
72942;BME280;69665;55.822;37.330;2023-05-24T02:33:54;99473.97;;;17.98;51.88
72942;BME280;69665;55.822;37.330;2023-05-24T02:36:20;99469.47;;;17.98;51.90
72942;BME280;69665;55.822;37.330;2023-05-24T02:38:51;99453.81;;;17.94;51.86
72942;BME280;69665;55.822;37.330;2023-05-24T02:41:17;99439.16;;;17.88;51.16
72942;BME280;69665;55.822;37.330;2023-05-24T02:43:44;99471.72;;;18.05;51.49
72942;BME280;69665;55.822;37.330;2023-05-24T02:46:11;99460.09;;;18.06;51.68
72942;BME280;69665;55.822;37.330;2023-05-24T02:48:37;99453.91;;;18.05;51.18
72942;BME280;69665;55.822;37.330;2023-05-24T02:51:03;99452.22;;;18.04;51.64
72942;BME280;69665;55.822;37.330;2023-05-24T02:53:29;99462.13;;;18.15;51.09
72942;BME280;69665;55.822;37.330;2023-05-24T02:55:56;99452.41;;;18.14;51.82
72942;BME280;69665;55.822;37.330;2023-05-24T02:58:22;99452.56;;;18.23;51.15
72942;BME280;69665;55.822;37.330;2023-05-24T03:00:49;99455.03;;;18.26;50.71
72942;BME280;69665;55.822;37.330;2023-05-24T03:03:16;99457.78;;;18.38;50.71
72942;BME280;69665;55.822;37.330;2023-05-24T03:05:43;99460.00;;;18.44;50.85
72942;BME280;69665;55.822;37.330;2023-05-24T03:08:11;99448.59;;;18.42;50.68
72942;BME280;69665;55.822;37.330;2023-05-24T03:10:36;99457.72;;;18.50;49.89
72942;BME280;69665;55.822;37.330;2023-05-24T03:13:02;99453.34;;;18.49;50.83
72942;BME280;69665;55.822;37.330;2023-05-24T03:15:28;99453.63;;;18.57;50.00
72942;BME280;69665;55.822;37.330;2023-05-24T03:17:54;99442.34;;;18.54;50.04
72942;BME280;69665;55.822;37.330;2023-05-24T03:20:20;99457.25;;;18.69;49.58
72942;BME280;69665;55.822;37.330;2023-05-24T03:22:47;99457.84;;;18.73;49.56
72942;BME280;69665;55.822;37.330;2023-05-24T03:25:17;99457.16;;;18.71;50.71
72942;BME280;69665;55.822;37.330;2023-05-24T03:27:43;99438.50;;;18.58;50.08
72942;BME280;69665;55.822;37.330;2023-05-24T03:30:09;99444.66;;;18.58;49.90
72942;BME280;69665;55.822;37.330;2023-05-24T03:32:43;99453.13;;;18.65;49.43
72942;BME280;69665;55.822;37.330;2023-05-24T03:35:09;99444.47;;;18.61;49.32
72942;BME280;69665;55.822;37.330;2023-05-24T03:37:37;99453.63;;;18.70;49.60
72942;BME280;69665;55.822;37.330;2023-05-24T03:40:03;99454.97;;;18.76;49.50
72942;BME280;69665;55.822;37.330;2023-05-24T03:42:52;99440.94;;;18.85;49.29
72942;BME280;69665;55.822;37.330;2023-05-24T03:45:22;99449.31;;;19.15;49.20
72942;BME280;69665;55.822;37.330;2023-05-24T03:47:48;99436.41;;;19.55;48.45
72942;BME280;69665;55.822;37.330;2023-05-24T03:50:13;99409.34;;;20.37;47.60
72942;BME280;69665;55.822;37.330;2023-05-24T03:52:41;99427.53;;;20.65;46.82
72942;BME280;69665;55.822;37.330;2023-05-24T03:55:07;99429.00;;;20.58;46.52
72942;BME280;69665;55.822;37.330;2023-05-24T03:57:32;99410.47;;;20.45;46.38
72942;BME280;69665;55.822;37.330;2023-05-24T03:59:58;99409.88;;;20.42;46.91
72942;BME280;69665;55.822;37.330;2023-05-24T04:02:26;99422.22;;;20.54;46.71
72942;BME280;69665;55.822;37.330;2023-05-24T04:04:52;99426.78;;;20.42;46.28
72942;BME280;69665;55.822;37.330;2023-05-24T04:07:18;99411.97;;;20.05;46.99
72942;BME280;69665;55.822;37.330;2023-05-24T04:09:44;99425.47;;;20.03;47.25
72942;BME280;69665;55.822;37.330;2023-05-24T04:12:10;99407.63;;;19.92;47.54
72942;BME280;69665;55.822;37.330;2023-05-24T04:14:40;99425.00;;;19.98;47.21
72942;BME280;69665;55.822;37.330;2023-05-24T04:17:06;99407.88;;;19.78;47.81
72942;BME280;69665;55.822;37.330;2023-05-24T04:19:32;99422.19;;;19.77;48.08
72942;BME280;69665;55.822;37.330;2023-05-24T04:21:58;99411.28;;;19.58;47.75
72942;BME280;69665;55.822;37.330;2023-05-24T04:24:24;99417.81;;;19.54;48.42
72942;BME280;69665;55.822;37.330;2023-05-24T04:26:50;99415.25;;;19.41;47.74
72942;BME280;69665;55.822;37.330;2023-05-24T04:29:16;99388.50;;;19.19;47.93
72942;BME280;69665;55.822;37.330;2023-05-24T04:31:43;99422.59;;;19.26;48.49
72942;BME280;69665;55.822;37.330;2023-05-24T04:34:09;99425.66;;;19.22;48.23
72942;BME280;69665;55.822;37.330;2023-05-24T04:36:37;99420.41;;;19.09;47.73
72942;BME280;69665;55.822;37.330;2023-05-24T04:39:04;99422.22;;;19.09;49.10
72942;BME280;69665;55.822;37.330;2023-05-24T04:41:30;99429.38;;;19.08;49.14
72942;BME280;69665;55.822;37.330;2023-05-24T04:43:57;99426.59;;;19.10;48.59
72942;BME280;69665;55.822;37.330;2023-05-24T04:46:24;99419.31;;;19.12;48.25
72942;BME280;69665;55.822;37.330;2023-05-24T04:48:51;99428.06;;;19.25;48.81
72942;BME280;69665;55.822;37.330;2023-05-24T04:51:17;99415.34;;;19.28;48.60
72942;BME280;69665;55.822;37.330;2023-05-24T04:53:43;99414.63;;;19.38;48.01
72942;BME280;69665;55.822;37.330;2023-05-24T04:56:08;99422.81;;;19.58;48.13
72942;BME280;69665;55.822;37.330;2023-05-24T04:58:34;99419.53;;;19.77;47.82
72942;BME280;69665;55.822;37.330;2023-05-24T05:01:00;99431.16;;;20.10;47.30
72942;BME280;69665;55.822;37.330;2023-05-24T05:03:27;99439.53;;;20.39;47.31
72942;BME280;69665;55.822;37.330;2023-05-24T05:05:52;99436.19;;;20.57;46.29
72942;BME280;69665;55.822;37.330;2023-05-24T05:08:18;99441.28;;;20.72;46.92
72942;BME280;69665;55.822;37.330;2023-05-24T05:10:44;99433.59;;;20.78;45.16
72942;BME280;69665;55.822;37.330;2023-05-24T05:13:10;99440.44;;;20.92;46.19
72942;BME280;69665;55.822;37.330;2023-05-24T05:15:36;99428.72;;;21.04;46.18
72942;BME280;69665;55.822;37.330;2023-05-24T05:18:02;99454.22;;;21.40;45.93
72942;BME280;69665;55.822;37.330;2023-05-24T05:20:27;99443.53;;;21.71;45.46
72942;BME280;69665;55.822;37.330;2023-05-24T05:22:53;99445.97;;;22.04;45.10
72942;BME280;69665;55.822;37.330;2023-05-24T05:25:19;99428.84;;;22.45;44.57
72942;BME280;69665;55.822;37.330;2023-05-24T05:27:45;99427.44;;;22.70;44.04
72942;BME280;69665;55.822;37.330;2023-05-24T05:30:11;99440.63;;;22.92;43.29
72942;BME280;69665;55.822;37.330;2023-05-24T05:32:37;99426.34;;;23.11;43.42
72942;BME280;69665;55.822;37.330;2023-05-24T05:35:03;99429.97;;;23.58;42.71
72942;BME280;69665;55.822;37.330;2023-05-24T05:37:30;99432.94;;;23.92;42.22
72942;BME280;69665;55.822;37.330;2023-05-24T05:39:56;99444.06;;;24.07;41.68
72942;BME280;69665;55.822;37.330;2023-05-24T05:42:21;99428.06;;;24.06;41.57
72942;BME280;69665;55.822;37.330;2023-05-24T05:44:47;99440.72;;;24.23;41.38
72942;BME280;69665;55.822;37.330;2023-05-24T05:47:16;99425.28;;;24.25;41.46
72942;BME280;69665;55.822;37.330;2023-05-24T05:49:41;99427.19;;;24.15;41.25
72942;BME280;69665;55.822;37.330;2023-05-24T05:52:07;99444.50;;;24.02;41.48
72942;BME280;69665;55.822;37.330;2023-05-24T05:54:33;99441.06;;;23.73;41.67
72942;BME280;69665;55.822;37.330;2023-05-24T05:56:59;99436.59;;;23.45;42.05
72942;BME280;69665;55.822;37.330;2023-05-24T05:59:24;99443.84;;;23.34;41.80
72942;BME280;69665;55.822;37.330;2023-05-24T06:01:50;99429.16;;;23.29;41.98
72942;BME280;69665;55.822;37.330;2023-05-24T06:04:17;99442.84;;;23.55;42.00
72942;BME280;69665;55.822;37.330;2023-05-24T06:06:43;99432.50;;;23.60;41.81
72942;BME280;69665;55.822;37.330;2023-05-24T06:09:10;99419.44;;;23.65;41.99
72942;BME280;69665;55.822;37.330;2023-05-24T06:11:36;99419.72;;;23.72;41.92
72942;BME280;69665;55.822;37.330;2023-05-24T06:14:04;99415.63;;;23.95;42.05
72942;BME280;69665;55.822;37.330;2023-05-24T06:16:29;99408.84;;;24.18;41.39
72942;BME280;69665;55.822;37.330;2023-05-24T06:18:56;99409.69;;;24.28;41.18
72942;BME280;69665;55.822;37.330;2023-05-24T06:21:22;99405.84;;;24.31;41.35
72942;BME280;69665;55.822;37.330;2023-05-24T06:23:48;99420.50;;;24.82;41.05
72942;BME280;69665;55.822;37.330;2023-05-24T06:26:16;99420.81;;;25.14;40.41
72942;BME280;69665;55.822;37.330;2023-05-24T06:28:42;99409.53;;;25.36;40.61
72942;BME280;69665;55.822;37.330;2023-05-24T06:31:08;99408.59;;;25.72;40.11
72942;BME280;69665;55.822;37.330;2023-05-24T06:33:34;99414.38;;;26.27;39.85
72942;BME280;69665;55.822;37.330;2023-05-24T06:35:59;99403.53;;;26.69;39.14
72942;BME280;69665;55.822;37.330;2023-05-24T06:38:26;99400.91;;;27.01;38.69
72942;BME280;69665;55.822;37.330;2023-05-24T06:40:52;99399.03;;;27.18;38.35
72942;BME280;69665;55.822;37.330;2023-05-24T06:43:18;99408.78;;;27.35;38.45
72942;BME280;69665;55.822;37.330;2023-05-24T06:45:45;99398.44;;;27.72;38.07
72942;BME280;69665;55.822;37.330;2023-05-24T06:48:11;99400.41;;;27.86;37.90
72942;BME280;69665;55.822;37.330;2023-05-24T06:50:37;99400.66;;;27.60;38.01
72942;BME280;69665;55.822;37.330;2023-05-24T06:53:03;99404.91;;;27.30;37.95
72942;BME280;69665;55.822;37.330;2023-05-24T06:55:28;99401.72;;;27.18;38.23
72942;BME280;69665;55.822;37.330;2023-05-24T06:57:54;99393.72;;;27.65;37.81
72942;BME280;69665;55.822;37.330;2023-05-24T07:00:20;99388.72;;;29.24;36.78
72942;BME280;69665;55.822;37.330;2023-05-24T07:02:46;99403.69;;;30.88;35.30
72942;BME280;69665;55.822;37.330;2023-05-24T07:05:12;99388.13;;;31.03;35.02
72942;BME280;69665;55.822;37.330;2023-05-24T07:07:39;99384.19;;;31.06;34.59
72942;BME280;69665;55.822;37.330;2023-05-24T07:10:06;99376.97;;;31.13;34.58
72942;BME280;69665;55.822;37.330;2023-05-24T07:12:32;99403.13;;;32.04;33.34
72942;BME280;69665;55.822;37.330;2023-05-24T07:14:58;99403.72;;;31.93;33.72
72942;BME280;69665;55.822;37.330;2023-05-24T07:17:24;99401.06;;;31.16;33.99
72942;BME280;69665;55.822;37.330;2023-05-24T07:19:49;99401.56;;;30.48;34.97
72942;BME280;69665;55.822;37.330;2023-05-24T07:22:15;99410.06;;;29.79;34.88
72942;BME280;69665;55.822;37.330;2023-05-24T07:24:41;99407.72;;;29.38;35.63
72942;BME280;69665;55.822;37.330;2023-05-24T07:27:07;99404.81;;;29.25;35.84
72942;BME280;69665;55.822;37.330;2023-05-24T07:29:33;99403.97;;;29.25;35.66
72942;BME280;69665;55.822;37.330;2023-05-24T07:31:58;99389.88;;;29.29;35.44
72942;BME280;69665;55.822;37.330;2023-05-24T07:34:25;99413.59;;;29.65;35.61
72942;BME280;69665;55.822;37.330;2023-05-24T07:36:55;99389.28;;;29.71;34.77
72942;BME280;69665;55.822;37.330;2023-05-24T07:39:24;99404.44;;;29.81;34.64
72942;BME280;69665;55.822;37.330;2023-05-24T07:41:55;99408.94;;;29.59;35.02
72942;BME280;69665;55.822;37.330;2023-05-24T07:44:20;99419.81;;;29.36;35.19
72942;BME280;69665;55.822;37.330;2023-05-24T07:46:46;99415.28;;;28.91;35.88
72942;BME280;69665;55.822;37.330;2023-05-24T07:49:12;99423.41;;;28.37;35.57
72942;BME280;69665;55.822;37.330;2023-05-24T07:51:38;99410.09;;;27.72;36.06
72942;BME280;69665;55.822;37.330;2023-05-24T07:54:04;99414.53;;;27.41;36.62
72942;BME280;69665;55.822;37.330;2023-05-24T07:56:30;99421.00;;;26.99;36.86
72942;BME280;69665;55.822;37.330;2023-05-24T07:58:57;99424.66;;;26.82;37.18
72942;BME280;69665;55.822;37.330;2023-05-24T08:01:29;99419.72;;;26.45;37.29
72942;BME280;69665;55.822;37.330;2023-05-24T08:03:55;99417.16;;;26.01;37.96
72942;BME280;69665;55.822;37.330;2023-05-24T08:06:21;99410.16;;;25.56;37.69
72942;BME280;69665;55.822;37.330;2023-05-24T08:08:48;99419.69;;;25.25;38.67
72942;BME280;69665;55.822;37.330;2023-05-24T08:11:18;99439.22;;;25.01;38.50
72942;BME280;69665;55.822;37.330;2023-05-24T08:13:43;99440.13;;;24.56;38.92
72942;BME280;69665;55.822;37.330;2023-05-24T08:16:09;99426.38;;;24.05;39.67
72942;BME280;69665;55.822;37.330;2023-05-24T08:18:35;99427.78;;;23.72;39.85
72942;BME280;69665;55.822;37.330;2023-05-24T08:21:01;99441.69;;;23.57;40.37
72942;BME280;69665;55.822;37.330;2023-05-24T08:23:26;99436.03;;;23.41;40.42
72942;BME280;69665;55.822;37.330;2023-05-24T08:25:57;99425.75;;;23.37;40.48
72942;BME280;69665;55.822;37.330;2023-05-24T08:28:23;99447.75;;;23.50;40.61
72942;BME280;69665;55.822;37.330;2023-05-24T08:30:48;99433.19;;;23.43;40.38
72942;BME280;69665;55.822;37.330;2023-05-24T08:33:17;99434.66;;;23.37;40.48
72942;BME280;69665;55.822;37.330;2023-05-24T08:35:43;99443.41;;;23.58;40.71
72942;BME280;69665;55.822;37.330;2023-05-24T08:38:08;99433.22;;;23.62;40.77
72942;BME280;69665;55.822;37.330;2023-05-24T08:40:34;99418.84;;;23.81;40.48
72942;BME280;69665;55.822;37.330;2023-05-24T08:43:01;99425.97;;;23.99;39.91
72942;BME280;69665;55.822;37.330;2023-05-24T08:45:31;99449.78;;;24.22;39.75
72942;BME280;69665;55.822;37.330;2023-05-24T08:47:57;99443.00;;;24.27;39.50
72942;BME280;69665;55.822;37.330;2023-05-24T08:50:24;99437.19;;;24.50;39.46
72942;BME280;69665;55.822;37.330;2023-05-24T08:52:50;99421.19;;;24.84;39.34
72942;BME280;69665;55.822;37.330;2023-05-24T08:55:17;99424.47;;;25.31;38.89
72942;BME280;69665;55.822;37.330;2023-05-24T08:57:44;99440.97;;;25.72;38.69
72942;BME280;69665;55.822;37.330;2023-05-24T09:00:10;99432.00;;;26.05;38.34
72942;BME280;69665;55.822;37.330;2023-05-24T09:02:38;99429.28;;;26.31;38.23
72942;BME280;69665;55.822;37.330;2023-05-24T09:05:11;99422.25;;;26.46;37.93
72942;BME280;69665;55.822;37.330;2023-05-24T09:07:39;99434.56;;;26.57;37.54
72942;BME280;69665;55.822;37.330;2023-05-24T09:10:07;99438.50;;;26.70;37.48
72942;BME280;69665;55.822;37.330;2023-05-24T09:12:35;99427.53;;;26.88;37.47
72942;BME280;69665;55.822;37.330;2023-05-24T09:15:02;99423.66;;;27.40;37.20
72942;BME280;69665;55.822;37.330;2023-05-24T09:17:31;99433.31;;;28.22;37.17
72942;BME280;69665;55.822;37.330;2023-05-24T09:19:58;99419.25;;;29.03;36.63
72942;BME280;69665;55.822;37.330;2023-05-24T09:22:26;99424.09;;;29.68;36.01
72942;BME280;69665;55.822;37.330;2023-05-24T09:24:56;99436.44;;;30.44;34.71
72942;BME280;69665;55.822;37.330;2023-05-24T09:27:22;99429.53;;;30.99;34.64
72942;BME280;69665;55.822;37.330;2023-05-24T09:29:49;99414.84;;;31.15;34.40
72942;BME280;69665;55.822;37.330;2023-05-24T09:32:17;99427.00;;;31.40;33.69
72942;BME280;69665;55.822;37.330;2023-05-24T09:34:44;99430.66;;;31.54;33.88
72942;BME280;69665;55.822;37.330;2023-05-24T09:37:17;99424.81;;;31.57;32.98
72942;BME280;69665;55.822;37.330;2023-05-24T09:39:44;99412.19;;;31.49;33.38
72942;BME280;69665;55.822;37.330;2023-05-24T09:42:17;99427.38;;;31.93;32.56
72942;BME280;69665;55.822;37.330;2023-05-24T09:45:02;99436.06;;;32.10;31.47
72942;BME280;69665;55.822;37.330;2023-05-24T09:47:33;99405.81;;;31.63;33.08
72942;BME280;69665;55.822;37.330;2023-05-24T09:50:03;99435.84;;;31.49;33.15
72942;BME280;69665;55.822;37.330;2023-05-24T09:52:36;99428.56;;;31.28;33.19
72942;BME280;69665;55.822;37.330;2023-05-24T09:55:18;99432.25;;;30.99;32.78
72942;BME280;69665;55.822;37.330;2023-05-24T09:57:51;99411.97;;;30.80;33.00
72942;BME280;69665;55.822;37.330;2023-05-24T10:00:22;99434.56;;;31.02;33.59
72942;BME280;69665;55.822;37.330;2023-05-24T10:05:28;99437.28;;;30.81;34.28
72942;BME280;69665;55.822;37.330;2023-05-24T10:07:59;99437.25;;;30.09;33.46
72942;BME280;69665;55.822;37.330;2023-05-24T10:10:30;99431.94;;;29.48;33.85
72942;BME280;69665;55.822;37.330;2023-05-24T10:12:59;99438.16;;;29.11;35.10
72942;BME280;69665;55.822;37.330;2023-05-24T10:15:26;99440.94;;;28.80;35.33
72942;BME280;69665;55.822;37.330;2023-05-24T10:17:56;99448.22;;;28.80;34.89
72942;BME280;69665;55.822;37.330;2023-05-24T10:20:24;99422.41;;;28.61;34.27
72942;BME280;69665;55.822;37.330;2023-05-24T10:22:54;99439.44;;;28.47;35.36
72942;BME280;69665;55.822;37.330;2023-05-24T10:25:26;99444.56;;;28.33;35.24
72942;BME280;69665;55.822;37.330;2023-05-24T10:28:13;99446.66;;;28.15;34.86
72942;BME280;69665;55.822;37.330;2023-05-24T10:30:47;99451.22;;;28.15;35.76
72942;BME280;69665;55.822;37.330;2023-05-24T10:33:16;99457.16;;;28.10;35.77
72942;BME280;69665;55.822;37.330;2023-05-24T10:35:43;99453.50;;;28.03;35.87
72942;BME280;69665;55.822;37.330;2023-05-24T10:38:10;99455.09;;;27.65;36.11
72942;BME280;69665;55.822;37.330;2023-05-24T10:40:40;99456.66;;;27.19;35.88
72942;BME280;69665;55.822;37.330;2023-05-24T10:43:07;99440.50;;;26.77;36.32
72942;BME280;69665;55.822;37.330;2023-05-24T10:45:39;99445.91;;;26.60;36.25
72942;BME280;69665;55.822;37.330;2023-05-24T10:50:37;99451.63;;;26.49;36.78
72942;BME280;69665;55.822;37.330;2023-05-24T10:53:16;99449.19;;;26.30;36.68
72942;BME280;69665;55.822;37.330;2023-05-24T10:55:55;99455.72;;;26.27;36.78
72942;BME280;69665;55.822;37.330;2023-05-24T11:01:23;99445.34;;;26.07;37.50
72942;BME280;69665;55.822;37.330;2023-05-24T11:03:51;99456.56;;;25.86;37.62
72942;BME280;69665;55.822;37.330;2023-05-24T11:06:17;99468.25;;;25.68;37.91
72942;BME280;69665;55.822;37.330;2023-05-24T11:08:44;99466.53;;;25.42;38.16
72942;BME280;69665;55.822;37.330;2023-05-24T11:13:37;99468.41;;;25.49;38.50
72942;BME280;69665;55.822;37.330;2023-05-24T11:16:04;99458.63;;;25.66;38.42
72942;BME280;69665;55.822;37.330;2023-05-24T11:18:30;99474.50;;;25.69;38.84
72942;BME280;69665;55.822;37.330;2023-05-24T11:20:58;99476.53;;;25.75;38.84
72942;BME280;69665;55.822;37.330;2023-05-24T11:23:25;99474.50;;;25.69;38.69
72942;BME280;69665;55.822;37.330;2023-05-24T11:25:53;99477.41;;;25.58;38.65
72942;BME280;69665;55.822;37.330;2023-05-24T11:28:44;99480.97;;;25.58;39.06
72942;BME280;69665;55.822;37.330;2023-05-24T11:31:10;99474.50;;;25.69;39.10
72942;BME280;69665;55.822;37.330;2023-05-24T11:33:40;99482.06;;;25.99;38.48
72942;BME280;69665;55.822;37.330;2023-05-24T11:36:05;99476.94;;;26.48;38.37
72942;BME280;69665;55.822;37.330;2023-05-24T11:38:33;99464.94;;;27.01;37.88
72942;BME280;69665;55.822;37.330;2023-05-24T11:41:01;99457.81;;;27.41;37.41
72942;BME280;69665;55.822;37.330;2023-05-24T11:43:29;99463.22;;;27.73;36.92
72942;BME280;69665;55.822;37.330;2023-05-24T11:45:55;99475.16;;;28.03;37.00
72942;BME280;69665;55.822;37.330;2023-05-24T11:48:21;99476.81;;;28.20;36.73
72942;BME280;69665;55.822;37.330;2023-05-24T11:50:47;99464.09;;;28.29;36.72
72942;BME280;69665;55.822;37.330;2023-05-24T11:53:15;99474.50;;;28.48;36.60
72942;BME280;69665;55.822;37.330;2023-05-24T11:55:41;99466.88;;;28.44;36.66
72942;BME280;69665;55.822;37.330;2023-05-24T11:58:37;99472.94;;;28.54;36.31
72942;BME280;69665;55.822;37.330;2023-05-24T12:01:22;99472.63;;;28.49;35.72
72942;BME280;69665;55.822;37.330;2023-05-24T12:03:48;99456.94;;;28.36;36.70
72942;BME280;69665;55.822;37.330;2023-05-24T12:06:13;99463.94;;;28.22;36.51
72942;BME280;69665;55.822;37.330;2023-05-24T12:08:39;99475.78;;;28.13;36.79
72942;BME280;69665;55.822;37.330;2023-05-24T12:11:05;99458.41;;;27.99;36.87
72942;BME280;69665;55.822;37.330;2023-05-24T12:13:30;99474.09;;;28.20;37.01
72942;BME280;69665;55.822;37.330;2023-05-24T12:15:56;99464.94;;;28.29;36.80
72942;BME280;69665;55.822;37.330;2023-05-24T12:18:24;99439.38;;;28.16;36.75
72942;BME280;69665;55.822;37.330;2023-05-24T12:20:51;99465.78;;;28.14;36.88
72942;BME280;69665;55.822;37.330;2023-05-24T12:23:22;99456.06;;;27.96;36.98
72942;BME280;69665;55.822;37.330;2023-05-24T12:25:48;99461.81;;;27.85;37.45
72942;BME280;69665;55.822;37.330;2023-05-24T12:28:21;99447.00;;;27.49;37.06
72942;BME280;69665;55.822;37.330;2023-05-24T12:30:49;99460.34;;;27.66;37.60
72942;BME280;69665;55.822;37.330;2023-05-24T12:33:17;99445.97;;;27.58;37.46
72942;BME280;69665;55.822;37.330;2023-05-24T12:35:43;99460.69;;;27.63;37.24
72942;BME280;69665;55.822;37.330;2023-05-24T12:38:09;99454.44;;;27.71;37.66
72942;BME280;69665;55.822;37.330;2023-05-24T12:40:36;99440.50;;;27.82;37.56
72942;BME280;69665;55.822;37.330;2023-05-24T12:43:03;99446.22;;;27.95;37.63
72942;BME280;69665;55.822;37.330;2023-05-24T12:45:29;99421.88;;;27.87;37.52
72942;BME280;69665;55.822;37.330;2023-05-24T12:47:58;99441.25;;;28.15;37.25
72942;BME280;69665;55.822;37.330;2023-05-24T12:50:26;99445.16;;;28.21;37.28
72942;BME280;69665;55.822;37.330;2023-05-24T12:52:52;99442.78;;;28.10;37.01
72942;BME280;69665;55.822;37.330;2023-05-24T12:55:21;99450.72;;;28.11;37.14
72942;BME280;69665;55.822;37.330;2023-05-24T12:57:47;99437.78;;;27.98;36.73
72942;BME280;69665;55.822;37.330;2023-05-24T13:00:19;99437.16;;;27.80;37.07
72942;BME280;69665;55.822;37.330;2023-05-24T13:02:45;99441.75;;;27.63;37.27
72942;BME280;69665;55.822;37.330;2023-05-24T13:05:11;99447.16;;;27.47;37.00
72942;BME280;69665;55.822;37.330;2023-05-24T13:07:37;99438.06;;;27.24;37.27
72942;BME280;69665;55.822;37.330;2023-05-24T13:10:04;99449.03;;;27.14;37.21
72942;BME280;69665;55.822;37.330;2023-05-24T13:12:32;99443.81;;;26.96;36.85
72942;BME280;69665;55.822;37.330;2023-05-24T13:14:58;99456.25;;;26.89;37.12